• Join FlightAware (Why Join?)
  • Login
  • US Flag 
09:37PM EDT


 

Airport Tracker/Info


-or-


 

Live Flight TrackerFlight Track Log ✈ SWA378 ✈ 09-May-2013 ✈ KLAX - KATL

Flight Track Log - Related Links

Times and Time Zones

All times are in EDT time to prevent confusion due to time zone crossing. See the SWA378 flight status page for this flight to view local times or setup timezone preferences in your user account.

Time Position Orientation Groundspeed Altitude Reporting Facility
EDT Latitude Longitude Course Direction KTS MPH feet Rate Location/Type
01:27PM 33.8994 -118.5261 213° Southwest 225 259 3,900  Level Los Angeles Center
01:28PM 33.8303 -118.5256 180° South 267 307 6,400 2,880 Climbing Los Angeles Center
01:29PM 33.7544 -118.5233 179° South 276 318 9,900 2,880 Climbing Los Angeles Center
01:30PM 33.6778 -118.4583 145° Southeast 326 375 12,400 2,520 Climbing Los Angeles Center
01:31PM 33.6333 -118.2191 90° East  Level FlightAware Approximate
01:31PM 33.6469 -118.3525 109° East 342 394 15,200  Level Los Angeles Center
01:32PM 33.6442 -118.2303 92° East 377 434 17,400 2,400 Climbing Los Angeles Center
01:33PM 33.6439 -118.0772 90° East 388 447 20,300 2,460 Climbing Los Angeles Center
01:34PM 33.6442 -117.9414 90° East 408 470 22,500 2,040 Climbing Los Angeles Center
01:35PM 33.6436 -117.7994 90° East 425 489 24,600 1,860 Climbing Los Angeles Center
01:36PM 33.6428 -117.6547 90° East 434 499 26,400 1,620 Climbing Los Angeles Center
01:37PM 33.6422 -117.5047 90° East 449 517 28,000 1,440 Climbing Los Angeles Center
01:38PM 33.6417 -117.3486 90° East 466 536 29,400 1,500 Climbing Los Angeles Center
01:39PM 33.6397 -117.1578 91° East 478 550 31,100 1,560 Climbing Los Angeles Center
01:40PM 33.6372 -116.9969 91° East 483 556 32,700 1,500 Climbing Los Angeles Center
01:41PM 33.6633 -116.8253 80° East 479 551 34,300 1,080 Climbing Los Angeles Center
01:42PM 33.6906 -116.6714 78° East 472 543 35,000 300 Climbing Los Angeles Center
01:43PM 33.7169 -116.5169 78° East 471 542 35,000  Level Los Angeles Center
01:44PM 33.7425 -116.3628 79° East 468 539 35,000  Level Los Angeles Center
01:45PM 33.7692 -116.2097 78° East 467 537 35,000  Level Los Angeles Center
01:46PM 33.7944 -116.0564 79° East 466 536 35,000  Level Los Angeles Center
01:47PM 33.8186 -115.9047 79° East 463 533 35,000  Level Los Angeles Center
01:48PM 33.8497 -115.7231 78° East 463 533 35,000  Level Los Angeles Center
01:49PM 33.8736 -115.5706 79° East 463 533 35,000 60 Level Los Angeles Center
01:50PM 33.8983 -115.4169 79° East 467 537 35,200 480 Climbing Los Angeles Center
01:51PM 33.9231 -115.2622 79° East 470 541 36,100 840 Climbing Los Angeles Center
01:52PM 33.9469 -115.1072 79° East 472 543 37,000 420 Climbing Los Angeles Center
01:53PM 33.9722 -114.9525 79° East 471 542 37,000  Level Los Angeles Center
01:54PM 34.0028 -114.7678 79° East 470 541 37,000  Level Los Angeles Center
01:55PM 34.0253 -114.6147 80° East 464 534 37,000  Level Los Angeles Center
01:57PM 34.0531 -114.4631 77° East 463 533 37,000  Level Los Angeles Center
01:58PM 34.0725 -114.3061 81° East 471 542 37,000  Level Los Angeles Center
01:58PM 34.0794 -114.2567 80° East 464 534 37,000  Level Albuquerque Center
01:59PM 34.1033 -114.0975 80° East 469 540 37,000  Level Albuquerque Center
02:00PM 34.1247 -113.9450 80° East 466 536 37,000  Level Albuquerque Center
02:01PM 34.1517 -113.7956 78° East 465 535 37,000  Level Albuquerque Center
02:02PM 34.1792 -113.6100 80° East 467 537 37,000  Level Albuquerque Center
02:03PM 34.1942 -113.4833 82° East 467 537 37,000  Level Albuquerque Center
02:04PM 34.2214 -113.2989 80° East 465 535 37,000  Level Albuquerque Center
02:05PM 34.2417 -113.1447 81° East 466 536 37,000  Level Albuquerque Center
02:06PM 34.2633 -112.9906 80° East 465 535 37,000  Level Albuquerque Center
02:07PM 34.2869 -112.8358 79° East 466 536 37,000  Level Albuquerque Center
02:08PM 34.3078 -112.6814 81° East 466 536 37,000  Level Albuquerque Center
02:09PM 34.3297 -112.5253 80° East 468 539 37,000  Level Albuquerque Center
02:10PM 34.3514 -112.3706 80° East 468 539 37,000  Level Albuquerque Center
02:11PM 34.3753 -112.1831 81° East 468 539 37,000  Level Albuquerque Center
02:12PM 34.3961 -112.0267 81° East 468 539 37,000  Level Albuquerque Center
02:13PM 34.4169 -111.8697 81° East 469 540 37,000  Level Albuquerque Center
02:14PM 34.4372 -111.7125 81° East 470 541 37,000  Level Albuquerque Center
02:15PM 34.4575 -111.5550 81° East 470 541 37,000  Level Albuquerque Center
02:16PM 34.4781 -111.3969 81° East 472 543 37,000  Level Albuquerque Center
02:17PM 34.4981 -111.2389 81° East 473 544 37,000  Level Albuquerque Center
02:18PM 34.5175 -111.0803 81° East 475 547 37,000  Level Albuquerque Center
02:19PM 34.5411 -110.8906 81° East 474 545 37,000  Level Albuquerque Center
02:21PM 34.5603 -110.7325 82° East 475 547 37,000  Level Albuquerque Center
02:22PM 34.5814 -110.5661 81° East 471 542 37,000  Level Albuquerque Center
02:23PM 34.6003 -110.4153 81° East 471 542 37,000  Level Albuquerque Center
02:24PM 34.6194 -110.2389 82° East 472 543 37,000  Level Albuquerque Center
02:25PM 34.6372 -110.0883 82° East 472 543 37,000  Level Albuquerque Center
02:26PM 34.6564 -109.9106 82° East 475 547 37,000  Level Albuquerque Center
02:27PM 34.6750 -109.7592 81° East 475 547 37,000  Level Albuquerque Center
02:28PM 34.7103 -109.6147 73° East 471 542 37,000  Level Albuquerque Center
02:29PM 34.7575 -109.4444 71° East 474 545 37,000  Level Albuquerque Center
02:30PM 34.7997 -109.3008 70° East 473 544 37,000  Level Albuquerque Center
02:31PM 34.8475 -109.1325 71° East 472 543 37,000  Level Albuquerque Center
02:32PM 34.8886 -108.9864 71° East 477 549 37,000  Level Albuquerque Center
02:33PM 34.9264 -108.8144 75° East 476 548 37,000  Level Albuquerque Center
02:34PM 34.9353 -108.6611 86° East 477 549 37,000  Level Albuquerque Center
02:35PM 34.9475 -108.4825 85° East 474 545 37,000  Level Albuquerque Center
02:36PM 34.9572 -108.3289 86° East 476 548 37,000  Level Albuquerque Center
02:37PM 34.9683 -108.1503 86° East 475 547 37,000  Level Albuquerque Center
02:38PM 34.9775 -107.9967 86° East 476 548 37,000  Level Albuquerque Center
02:39PM 34.9872 -107.8236 86° East 473 544 37,000  Level Albuquerque Center
02:40PM 34.9953 -107.6644 86° East 472 543 37,000  Level Albuquerque Center
02:41PM 35.0033 -107.5072 86° East 469 540 37,000  Level Albuquerque Center
02:42PM 35.0122 -107.3483 86° East 469 540 37,000  Level Albuquerque Center
02:43PM 35.0211 -107.1706 86° East 469 540 37,000  Level Albuquerque Center
02:44PM 35.0306 -107.0108 86° East 470 541 37,000  Level Albuquerque Center
02:45PM 35.0369 -106.8578 87° East 472 543 37,000  Level Albuquerque Center
02:46PM 35.0447 -106.6819 87° East 467 537 37,000  Level Albuquerque Center
02:47PM 35.0522 -106.5336 86° East 478 550 37,000  Level Albuquerque Center
02:48PM 35.0594 -106.3686 87° East 487 560 37,000  Level Albuquerque Center
02:49PM 35.0667 -106.2086 87° East 478 550 37,000  Level Albuquerque Center
02:50PM 35.0733 -106.0153 88° East 477 549 37,000  Level Albuquerque Center
02:51PM 35.0811 -105.8569 87° East 476 548 37,000  Level Albuquerque Center
02:52PM 35.0889 -105.6942 87° East 476 548 37,000  Level Albuquerque Center
02:53PM 35.0944 -105.5303 88° East 478 550 37,000  Level Albuquerque Center
02:55PM 35.1003 -105.3681 87° East 476 548 37,000  Level Albuquerque Center
02:56PM 35.1053 -105.2050 88° East 476 548 37,000  Level Albuquerque Center
02:57PM 35.1122 -105.0156 87° East 476 548 37,000  Level Albuquerque Center
02:58PM 35.1206 -104.8531 86° East 475 547 37,000  Level Albuquerque Center
02:59PM 35.1292 -104.6911 86° East 474 545 37,000  Level Albuquerque Center
03:00PM 35.1372 -104.5339 86° East 474 545 37,000  Level Albuquerque Center
03:01PM 35.1461 -104.3733 86° East 476 548 37,000  Level Albuquerque Center
03:02PM 35.1519 -104.2111 87° East 477 549 37,000  Level Albuquerque Center
03:03PM 35.1597 -104.0508 87° East 475 547 37,000  Level Albuquerque Center
03:04PM 35.1661 -103.8625 88° East 475 547 37,000  Level Albuquerque Center
03:05PM 35.1731 -103.7003 87° East 476 548 37,000  Level Albuquerque Center
03:06PM 35.1792 -103.5389 87° East 473 544 37,000  Level Albuquerque Center
03:07PM 35.1853 -103.3786 87° East 471 542 37,000  Level Albuquerque Center
03:08PM 35.1919 -103.2178 87° East 471 542 37,000  Level Albuquerque Center
03:09PM 35.1975 -103.0575 88° East 469 540 37,000  Level Albuquerque Center
03:10PM 35.2033 -102.8692 88° East 470 541 37,000  Level Albuquerque Center
03:11PM 35.2069 -102.7100 88° East 470 541 37,000  Level Albuquerque Center
03:12PM 35.2125 -102.5511 88° East 469 540 37,000  Level Albuquerque Center
03:13PM 35.2172 -102.3914 88° East 470 541 37,000  Level Albuquerque Center
03:14PM 35.2214 -102.2317 88° East 472 543 37,000  Level Albuquerque Center
03:15PM 35.2258 -102.0706 88° East 474 545 37,000  Level Albuquerque Center
03:16PM 35.2308 -101.8992 88° East 478 550 37,000  Level Albuquerque Center
03:17PM 35.2342 -101.7347 89° East 479 551 37,000  Level Albuquerque Center
03:18PM 35.2419 -101.5694 87° East 478 550 37,000  Level Albuquerque Center
03:19PM 35.2514 -101.4072 86° East 479 551 37,000  Level Albuquerque Center
03:20PM 35.2569 -101.2122 88° East 476 548 37,000  Level Albuquerque Center
03:21PM 35.2642 -101.0517 87° East 476 548 37,000  Level Albuquerque Center
03:22PM 35.2708 -100.8911 87° East 475 547 37,000  Level Albuquerque Center
03:23PM 35.2775 -100.7306 87° East 474 545 37,000  Level Albuquerque Center
03:24PM 35.2847 -100.5686 87° East 474 545 37,000  Level Albuquerque Center
03:25PM 35.2900 -100.4064 88° East 475 547 37,000  Level Albuquerque Center
03:26PM 35.2956 -100.2447 88° East 476 548 37,000  Level Albuquerque Center
03:27PM 35.3019 -100.0497 88° East 477 549 37,000  Level Albuquerque Center
03:29PM 35.3081 -99.8858 87° East 480 552 37,000  Level Albuquerque Center
03:30PM 35.3136 -99.7231 88° East 480 552 37,000  Level Albuquerque Center
03:31PM 35.3175 -99.5592 88° East 483 556 37,000 120 Level Albuquerque Center
03:32PM 35.3231 -99.3953 88° East 484 557 37,300 480 Climbing Albuquerque Center
03:32PM 35.3228 -99.3219 90° East 481 554 37,700 1,020 Climbing Fort Worth Center
03:33PM 35.3272 -99.1539 88° East 481 554 38,700 600 Climbing Fort Worth Center
03:34PM 35.3317 -98.9886 88° East 481 554 39,000 120 Climbing Fort Worth Center
03:35PM 35.3378 -98.8258 87° East 481 554 39,000  Level Fort Worth Center
03:36PM 35.3417 -98.6631 88° East 476 548 39,000  Level Fort Worth Center
03:37PM 35.3453 -98.4953 88° East 476 548 39,000  Level Fort Worth Center
03:38PM 35.3464 -98.3500 89° East 476 548 39,000  Level Fort Worth Center
03:39PM 35.3497 -98.1847 89° East 476 548 39,000  Level Fort Worth Center
03:40PM 35.3525 -98.0167 89° East 481 554 39,000  Level Fort Worth Center
03:41PM 35.3553 -97.8464 89° East 486 559 39,000  Level Fort Worth Center
03:42PM 35.3558 -97.6581 90° East 498 573 39,000  Level Fort Worth Center
03:43PM 35.3625 -97.4875 87° East 498 573 39,000  Level Fort Worth Center
03:44PM 35.3644 -97.3142 89° East 498 573 39,000  Level Fort Worth Center
03:45PM 35.3664 -97.1386 89° East 498 573 39,000  Level Fort Worth Center
03:46PM 35.3700 -96.9731 88° East 498 573 39,000  Level Fort Worth Center
03:47PM 35.3714 -96.8050 89° East 498 573 39,000  Level Fort Worth Center
03:48PM 35.3747 -96.6319 89° East 498 573 39,000  Level Fort Worth Center
03:49PM 35.3775 -96.4614 89° East 498 573 39,000  Level Fort Worth Center
03:50PM 35.3783 -96.2908 90° East 498 573 39,000  Level Fort Worth Center
03:51PM 35.3808 -96.1150 89° East 498 573 39,000  Level Fort Worth Center
03:52PM 35.3831 -95.9419 89° East 498 573 39,000  Level Fort Worth Center
03:53PM 35.3853 -95.7892 89° East 498 573 39,000  Level Fort Worth Center
03:54PM 35.3869 -95.6108 89° East 503 579 39,000  Level Fort Worth Center
03:56PM 35.3881 -95.2239 90° East 513 590 39,000  Level Memphis Center
03:57PM 35.3864 -95.0481 91° East 508 585 39,000  Level Memphis Center
03:58PM 35.3869 -94.8672 90° East 518 596 39,000  Level Memphis Center
03:59PM 35.3869 -94.6917 90° East 518 596 39,000  Level Memphis Center
04:00PM 35.3869 -94.5083 90° East 518 596 39,000  Level Memphis Center
04:01PM 35.3861 -94.3400 90° East 532 612 39,000 -900 Level Memphis Center
04:02PM 35.3856 -94.1567 90° East 538 619 37,200 -1,920 Descending Memphis Center
04:03PM 35.3719 -93.9803 95° East 533 613 35,200 -2,100 Descending Memphis Center
04:04PM 35.3561 -93.8092 96° East 521 600 33,100 -2,340 Descending Memphis Center
04:05PM 35.3419 -93.6356 96° East 516 594 30,600 -2,100 Descending Memphis Center
04:06PM 35.3256 -93.4644 97° East 511 588 29,000 -840 Descending Memphis Center
04:07PM 35.3069 -93.2753 97° East 503 579 29,000  Level Memphis Center
04:08PM 35.2922 -93.1069 96° East 498 573 29,000  Level Memphis Center
04:09PM 35.2750 -92.9283 97° East 511 588 29,000 -360 Level Memphis Center
04:10PM 35.2617 -92.7703 96° East 503 579 28,300 -840 Descending Memphis Center
04:11PM 35.2458 -92.6122 97° East 498 573 27,400 -660 Descending Memphis Center
04:12PM 35.2297 -92.4517 97° East 498 573 27,000 -240 Descending Memphis Center
04:13PM 35.2114 -92.2911 98° East 486 559 27,000  Level Memphis Center
04:14PM 35.1950 -92.1306 97° East 480 552 27,000  Level Memphis Center
04:15PM 35.1786 -91.9525 96° East 480 552 27,000  Level Memphis Center
04:16PM 35.1597 -91.7922 98° East 480 552 27,000  Level Memphis Center
04:17PM 35.1428 -91.6344 97° East 480 552 27,000  Level Memphis Center
04:18PM 35.1275 -91.4742 97° East 480 552 27,000  Level Memphis Center
04:19PM 35.1142 -91.3369 97° East 475 547 27,000  Level Memphis Center
04:20PM 35.0944 -91.1767 99° East 469 540 27,000  Level Memphis Center
04:21PM 35.0767 -91.0067 97° East 469 540 27,000  Level Memphis Center
04:22PM 35.0586 -90.8542 98° East 461 531 27,000  Level Memphis Center
04:23PM 35.0422 -90.6994 97° East 461 531 27,000  Level Memphis Center
04:24PM 35.0239 -90.5497 98° East 456 525 27,000  Level Memphis Center
04:25PM 35.0053 -90.4003 99° East 446 513 27,000  Level Memphis Center
04:26PM 34.9886 -90.2481 98° East 446 513 27,000  Level Memphis Center
04:27PM 34.9717 -90.0986 98° East 446 513 27,000  Level Memphis Center
04:28PM 34.9544 -89.9492 98° East 446 513 27,000  Level Memphis Center
04:29PM 34.9394 -89.8125 98° East 446 513 27,000 -300 Level Memphis Center
04:30PM 34.9197 -89.6506 98° East 465 535 26,500 -720 Descending Memphis Center
04:31PM 34.8958 -89.4836 100° East 465 535 25,600 -780 Descending Memphis Center
04:32PM 34.8758 -89.3344 99° East 465 535 25,000 -300 Descending Memphis Center
04:33PM 34.8558 -89.1853 99° East 451 519 25,000  Level Memphis Center
04:34PM 34.8375 -89.0414 99° East 436 502 25,000  Level Memphis Center
04:35PM 34.8172 -88.9000 100° East 431 496 25,000  Level Memphis Center
04:36PM 34.8008 -88.7586 98° East 421 484 25,000  Level Memphis Center
04:37PM 34.7844 -88.6250 98° East 416 479 25,000  Level Memphis Center
04:38PM 34.7658 -88.4989 100° East 416 479 25,000  Level Memphis Center
04:39PM 34.7450 -88.3553 100° East 408 470 25,000  Level Memphis Center
04:40PM 34.7281 -88.2219 99° East 403 464 25,000  Level Memphis Center
04:41PM 34.7111 -88.0908 99° East 419 482 25,000  Level Memphis Center
04:42PM 34.6900 -87.9603 101° East 413 475 25,000  Level Memphis Center
04:43PM 34.6747 -87.8242 98° East 408 470 25,000  Level Memphis Center
04:44PM 34.6553 -87.6911 100° East 408 470 25,000  Level Memphis Center
04:45PM 34.6311 -87.5403 101° East 408 470 25,000  Level Memphis Center
04:47PM 34.5981 -87.3167 100° East 425 489 25,000  Level Atlanta Center
04:48PM 34.5722 -87.1794 103° East 425 489 25,000  Level Atlanta Center
04:49PM 34.5464 -87.0450 103° East 418 481 25,000  Level Atlanta Center
04:50PM 34.5206 -86.9053 103° East 418 481 25,000  Level Atlanta Center
04:51PM 34.4922 -86.7708 104° East 412 474 25,000  Level Atlanta Center
04:52PM 34.4661 -86.6339 103° East 412 474 25,000  Level Atlanta Center
04:53PM 34.4417 -86.4969 102° East 412 474 25,000  Level Atlanta Center
04:54PM 34.4131 -86.3603 104° East 412 474 25,000  Level Atlanta Center
04:55PM 34.3864 -86.2236 103° East 412 474 25,000  Level Atlanta Center
04:56PM 34.3594 -86.0869 103° East 412 474 25,000  Level Atlanta Center
04:57PM 34.3306 -85.9506 104° East 412 474 25,000 -360 Level Atlanta Center
04:58PM 34.3111 -85.8394 102° East 412 474 24,300 -960 Descending Atlanta Center
04:59PM 34.2781 -85.6803 104° East 407 468 23,100 -1,140 Descending Atlanta Center
05:00PM 34.2525 -85.5492 103° East 407 468 22,100 -1,440 Descending Atlanta Center
05:01PM 34.2186 -85.4231 108° East 397 457 20,300 -1,800 Descending Atlanta Center
05:02PM 34.1781 -85.3017 112° Southeast 397 457 18,500 -1,860 Descending Atlanta Center
05:03PM 34.1417 -85.1833 110° East 379 436 16,600 -1,980 Descending Atlanta Center
05:04PM 34.1031 -85.0675 112° Southeast 374 430 14,600 -1,320 Descending Atlanta Center
05:05PM 34.0433 -84.9664 125° Southeast 368 423 14,000 -300 Descending Atlanta Center
05:06PM 33.9750 -84.8806 134° Southeast 357 411 14,100  Climbing Atlanta Center
05:07PM 33.9067 -84.7922 133° Southeast 357 411 14,000 -540 Descending Atlanta Center
05:08PM 33.8300 -84.7139 140° Southeast 357 411 13,100 -1,080 Descending Atlanta Center
05:08PM 33.8000 -84.7000 159° South 359 413 12,700 -900 Descending Atlanta TRACON
05:09PM 33.7167 -84.6500 153° Southeast 341 392 12,000 -420 Descending Atlanta TRACON
05:10PM 33.6333 -84.6000 153° Southeast 305 351 11,900  Descending Atlanta TRACON
05:11PM 33.5667 -84.5667 157° South 281 323 12,000 -720 Climbing Atlanta TRACON
05:12PM 33.5500 -84.4833 103° East 277 319 10,600 -1,620 Descending Atlanta TRACON
05:13PM 33.5500 -84.3833 90° East 257 296 8,800 -1,560 Descending Atlanta TRACON
05:14PM 33.5500 -84.3167 90° East 232 267 7,400 -1,680 Descending Atlanta TRACON
05:15PM 33.5500 -84.2333 90° East 234 269 5,500 -1,800 Descending Atlanta TRACON
05:16PM 33.6167 -84.2333 360° North 216 249 3,800 -1,380 Descending Atlanta TRACON
05:17PM 33.6333 -84.2833 292° West 180 207 2,900 -960 Descending Atlanta TRACON
05:18PM 33.6333 -84.3500 270° West 167 192 2,000 -780 Descending Atlanta TRACON
05:19PM 33.6333 -84.4000 270° West 132 152 1,300 -660 Descending Atlanta TRACON
05:21PM 33.6333 -84.4167 303° West  Level FlightAware Approximate
05:28PM 33.6367 -84.4279 303° West  Level Estimated